sensor_id;sensor_type;location;lat;lon;timestamp;temperature;humidity
52471;DHT22;38382;53.160;7.026;2023-03-14T00:01:53;9.10;99.90
52471;DHT22;38382;53.160;7.026;2023-03-14T00:04:19;9.10;99.90
52471;DHT22;38382;53.160;7.026;2023-03-14T00:06:45;9.10;99.90
52471;DHT22;38382;53.160;7.026;2023-03-14T00:09:13;9.10;99.90
52471;DHT22;38382;53.160;7.026;2023-03-14T00:11:39;9.10;99.90
52471;DHT22;38382;53.160;7.026;2023-03-14T00:14:04;9.20;99.90
52471;DHT22;38382;53.160;7.026;2023-03-14T00:16:30;9.10;99.90
52471;DHT22;38382;53.160;7.026;2023-03-14T00:18:58;9.20;99.90
52471;DHT22;38382;53.160;7.026;2023-03-14T00:21:25;9.20;99.90
52471;DHT22;38382;53.160;7.026;2023-03-14T00:23:51;9.20;99.90
52471;DHT22;38382;53.160;7.026;2023-03-14T00:26:19;9.30;99.90
52471;DHT22;38382;53.160;7.026;2023-03-14T00:28:46;9.30;99.90
52471;DHT22;38382;53.160;7.026;2023-03-14T00:31:14;9.40;99.90
52471;DHT22;38382;53.160;7.026;2023-03-14T00:33:41;9.40;99.90
52471;DHT22;38382;53.160;7.026;2023-03-14T00:36:12;9.50;99.90
52471;DHT22;38382;53.160;7.026;2023-03-14T00:38:39;9.60;99.90
52471;DHT22;38382;53.160;7.026;2023-03-14T00:41:11;9.60;99.90
52471;DHT22;38382;53.160;7.026;2023-03-14T00:43:37;9.70;99.90
52471;DHT22;38382;53.160;7.026;2023-03-14T00:46:03;9.80;99.90
52471;DHT22;38382;53.160;7.026;2023-03-14T00:48:29;9.90;99.90
52471;DHT22;38382;53.160;7.026;2023-03-14T00:50:55;10.00;99.90
52471;DHT22;38382;53.160;7.026;2023-03-14T00:53:21;10.00;99.90
52471;DHT22;38382;53.160;7.026;2023-03-14T00:55:47;10.20;99.90
52471;DHT22;38382;53.160;7.026;2023-03-14T00:58:15;10.20;99.90
52471;DHT22;38382;53.160;7.026;2023-03-14T01:00:42;10.30;99.90
52471;DHT22;38382;53.160;7.026;2023-03-14T01:03:09;10.30;99.90
52471;DHT22;38382;53.160;7.026;2023-03-14T01:05:35;10.20;99.90
52471;DHT22;38382;53.160;7.026;2023-03-14T01:08:01;10.20;99.90
52471;DHT22;38382;53.160;7.026;2023-03-14T01:10:27;10.20;99.90
52471;DHT22;38382;53.160;7.026;2023-03-14T01:12:53;10.20;99.90
52471;DHT22;38382;53.160;7.026;2023-03-14T01:15:19;10.20;99.90
52471;DHT22;38382;53.160;7.026;2023-03-14T01:17:45;10.20;99.90
52471;DHT22;38382;53.160;7.026;2023-03-14T01:20:12;10.30;99.90
52471;DHT22;38382;53.160;7.026;2023-03-14T01:22:39;10.30;99.90
52471;DHT22;38382;53.160;7.026;2023-03-14T01:25:07;10.30;99.90
52471;DHT22;38382;53.160;7.026;2023-03-14T01:27:33;10.30;99.90
52471;DHT22;38382;53.160;7.026;2023-03-14T01:29:59;10.30;99.90
52471;DHT22;38382;53.160;7.026;2023-03-14T01:32:25;10.20;99.90
52471;DHT22;38382;53.160;7.026;2023-03-14T01:34:51;10.30;99.90
52471;DHT22;38382;53.160;7.026;2023-03-14T01:37:17;10.30;99.90
52471;DHT22;38382;53.160;7.026;2023-03-14T01:39:43;10.20;99.90
52471;DHT22;38382;53.160;7.026;2023-03-14T01:42:09;10.20;99.90
52471;DHT22;38382;53.160;7.026;2023-03-14T01:44:56;10.20;99.90
52471;DHT22;38382;53.160;7.026;2023-03-14T01:47:23;10.10;99.90
52471;DHT22;38382;53.160;7.026;2023-03-14T01:49:53;10.10;99.90
52471;DHT22;38382;53.160;7.026;2023-03-14T01:52:25;10.10;99.90
52471;DHT22;38382;53.160;7.026;2023-03-14T01:55:00;10.10;99.90
52471;DHT22;38382;53.160;7.026;2023-03-14T01:57:37;10.10;99.90
52471;DHT22;38382;53.160;7.026;2023-03-14T02:00:09;10.10;99.90
52471;DHT22;38382;53.160;7.026;2023-03-14T02:02:46;10.10;99.90
52471;DHT22;38382;53.160;7.026;2023-03-14T02:05:15;10.10;99.90
52471;DHT22;38382;53.160;7.026;2023-03-14T02:10:14;10.10;99.90
52471;DHT22;38382;53.160;7.026;2023-03-14T02:12:40;10.10;99.90
52471;DHT22;38382;53.160;7.026;2023-03-14T02:15:06;10.10;99.90
52471;DHT22;38382;53.160;7.026;2023-03-14T02:17:32;10.10;99.90
52471;DHT22;38382;53.160;7.026;2023-03-14T02:22:52;10.00;99.90
52471;DHT22;38382;53.160;7.026;2023-03-14T02:25:55;10.00;99.90
52471;DHT22;38382;53.160;7.026;2023-03-14T02:28:22;10.10;99.90
52471;DHT22;38382;53.160;7.026;2023-03-14T02:30:48;10.00;99.90
52471;DHT22;38382;53.160;7.026;2023-03-14T02:33:17;10.00;99.90
52471;DHT22;38382;53.160;7.026;2023-03-14T02:35:52;10.00;99.90
52471;DHT22;38382;53.160;7.026;2023-03-14T02:40:55;10.00;99.90
52471;DHT22;38382;53.160;7.026;2023-03-14T02:43:20;10.00;99.90
52471;DHT22;38382;53.160;7.026;2023-03-14T02:45:47;10.00;99.90
52471;DHT22;38382;53.160;7.026;2023-03-14T02:50:47;10.00;99.90
52471;DHT22;38382;53.160;7.026;2023-03-14T02:53:17;10.00;99.90
52471;DHT22;38382;53.160;7.026;2023-03-14T02:55:49;9.90;99.90
52471;DHT22;38382;53.160;7.026;2023-03-14T02:58:16;9.90;99.90
52471;DHT22;38382;53.160;7.026;2023-03-14T03:00:42;10.00;99.90
52471;DHT22;38382;53.160;7.026;2023-03-14T03:03:08;9.90;99.90
52471;DHT22;38382;53.160;7.026;2023-03-14T03:05:34;9.90;99.90
52471;DHT22;38382;53.160;7.026;2023-03-14T03:08:00;9.90;99.90
52471;DHT22;38382;53.160;7.026;2023-03-14T03:10:27;9.90;99.90
52471;DHT22;38382;53.160;7.026;2023-03-14T03:12:53;9.90;99.90
52471;DHT22;38382;53.160;7.026;2023-03-14T03:15:18;9.80;99.90
52471;DHT22;38382;53.160;7.026;2023-03-14T03:17:44;9.90;99.90
52471;DHT22;38382;53.160;7.026;2023-03-14T03:20:10;9.80;99.90
52471;DHT22;38382;53.160;7.026;2023-03-14T03:22:37;9.80;99.90
52471;DHT22;38382;53.160;7.026;2023-03-14T03:25:04;9.80;99.90
52471;DHT22;38382;53.160;7.026;2023-03-14T03:27:31;9.80;99.90
52471;DHT22;38382;53.160;7.026;2023-03-14T03:29:58;9.80;99.90
52471;DHT22;38382;53.160;7.026;2023-03-14T03:32:24;9.80;99.90
52471;DHT22;38382;53.160;7.026;2023-03-14T03:34:51;9.80;99.90
52471;DHT22;38382;53.160;7.026;2023-03-14T03:37:17;9.80;99.90
52471;DHT22;38382;53.160;7.026;2023-03-14T03:39:43;9.80;99.90
52471;DHT22;38382;53.160;7.026;2023-03-14T03:42:09;9.80;99.90
52471;DHT22;38382;53.160;7.026;2023-03-14T03:44:35;9.80;99.90
52471;DHT22;38382;53.160;7.026;2023-03-14T03:47:01;9.80;99.90
52471;DHT22;38382;53.160;7.026;2023-03-14T03:49:31;9.80;99.90
52471;DHT22;38382;53.160;7.026;2023-03-14T03:51:58;9.70;99.90
52471;DHT22;38382;53.160;7.026;2023-03-14T03:54:24;9.70;99.90
52471;DHT22;38382;53.160;7.026;2023-03-14T03:56:50;9.70;99.90
52471;DHT22;38382;53.160;7.026;2023-03-14T03:59:15;9.70;99.90
52471;DHT22;38382;53.160;7.026;2023-03-14T04:01:41;9.70;99.90
52471;DHT22;38382;53.160;7.026;2023-03-14T04:04:07;9.60;99.90
52471;DHT22;38382;53.160;7.026;2023-03-14T04:06:33;9.60;99.90
52471;DHT22;38382;53.160;7.026;2023-03-14T04:08:59;9.50;99.90
52471;DHT22;38382;53.160;7.026;2023-03-14T04:11:24;9.50;99.90
52471;DHT22;38382;53.160;7.026;2023-03-14T04:13:50;9.40;99.90
52471;DHT22;38382;53.160;7.026;2023-03-14T04:16:24;9.40;99.90
52471;DHT22;38382;53.160;7.026;2023-03-14T04:18:51;9.40;99.90
52471;DHT22;38382;53.160;7.026;2023-03-14T04:21:17;9.30;99.90
52471;DHT22;38382;53.160;7.026;2023-03-14T04:23:43;9.30;99.90
52471;DHT22;38382;53.160;7.026;2023-03-14T04:26:09;9.30;99.90
52471;DHT22;38382;53.160;7.026;2023-03-14T04:28:35;9.30;99.90
52471;DHT22;38382;53.160;7.026;2023-03-14T04:31:17;9.30;99.90
52471;DHT22;38382;53.160;7.026;2023-03-14T04:33:44;9.30;99.90
52471;DHT22;38382;53.160;7.026;2023-03-14T04:36:10;9.30;99.90
52471;DHT22;38382;53.160;7.026;2023-03-14T04:38:35;9.30;99.90
52471;DHT22;38382;53.160;7.026;2023-03-14T04:41:01;9.30;99.90
52471;DHT22;38382;53.160;7.026;2023-03-14T04:43:27;9.30;99.90
52471;DHT22;38382;53.160;7.026;2023-03-14T04:45:54;9.30;99.90
52471;DHT22;38382;53.160;7.026;2023-03-14T04:48:20;9.20;99.90
52471;DHT22;38382;53.160;7.026;2023-03-14T04:50:47;9.20;99.90
52471;DHT22;38382;53.160;7.026;2023-03-14T04:53:14;9.10;99.90
52471;DHT22;38382;53.160;7.026;2023-03-14T04:55:39;9.10;99.90
52471;DHT22;38382;53.160;7.026;2023-03-14T04:58:05;9.00;99.90
52471;DHT22;38382;53.160;7.026;2023-03-14T05:00:31;8.90;99.90
52471;DHT22;38382;53.160;7.026;2023-03-14T05:02:57;8.90;99.90
52471;DHT22;38382;53.160;7.026;2023-03-14T05:05:23;8.80;99.90
52471;DHT22;38382;53.160;7.026;2023-03-14T05:07:49;8.80;99.90
52471;DHT22;38382;53.160;7.026;2023-03-14T05:10:15;8.90;99.90
52471;DHT22;38382;53.160;7.026;2023-03-14T05:12:41;8.80;99.90
52471;DHT22;38382;53.160;7.026;2023-03-14T05:15:07;8.80;99.90
52471;DHT22;38382;53.160;7.026;2023-03-14T05:17:33;8.80;99.90
52471;DHT22;38382;53.160;7.026;2023-03-14T05:19:59;8.80;99.90
52471;DHT22;38382;53.160;7.026;2023-03-14T05:22:25;8.90;99.90
52471;DHT22;38382;53.160;7.026;2023-03-14T05:24:51;8.90;99.90
52471;DHT22;38382;53.160;7.026;2023-03-14T05:27:16;8.90;99.90
52471;DHT22;38382;53.160;7.026;2023-03-14T05:29:42;8.90;99.90
52471;DHT22;38382;53.160;7.026;2023-03-14T05:32:08;8.90;99.90
52471;DHT22;38382;53.160;7.026;2023-03-14T05:34:34;8.90;99.90
52471;DHT22;38382;53.160;7.026;2023-03-14T05:36:59;8.80;99.90
52471;DHT22;38382;53.160;7.026;2023-03-14T05:39:25;8.80;99.90
52471;DHT22;38382;53.160;7.026;2023-03-14T05:41:51;8.80;99.90
52471;DHT22;38382;53.160;7.026;2023-03-14T05:44:19;8.80;99.90
52471;DHT22;38382;53.160;7.026;2023-03-14T05:46:44;8.80;99.90
52471;DHT22;38382;53.160;7.026;2023-03-14T05:49:10;8.80;99.90
52471;DHT22;38382;53.160;7.026;2023-03-14T05:51:36;8.80;99.90
52471;DHT22;38382;53.160;7.026;2023-03-14T05:54:02;8.70;99.90
52471;DHT22;38382;53.160;7.026;2023-03-14T05:56:27;8.70;99.90
52471;DHT22;38382;53.160;7.026;2023-03-14T05:58:53;8.60;99.90
52471;DHT22;38382;53.160;7.026;2023-03-14T06:01:19;8.60;99.90
52471;DHT22;38382;53.160;7.026;2023-03-14T06:03:44;8.60;99.90
52471;DHT22;38382;53.160;7.026;2023-03-14T06:06:10;8.60;99.90
52471;DHT22;38382;53.160;7.026;2023-03-14T06:08:36;8.60;99.90
52471;DHT22;38382;53.160;7.026;2023-03-14T06:11:03;8.60;99.90
52471;DHT22;38382;53.160;7.026;2023-03-14T06:13:29;8.60;99.90
52471;DHT22;38382;53.160;7.026;2023-03-14T06:15:55;8.60;99.90
52471;DHT22;38382;53.160;7.026;2023-03-14T06:18:20;8.60;99.90
52471;DHT22;38382;53.160;7.026;2023-03-14T06:20:46;8.60;99.90
52471;DHT22;38382;53.160;7.026;2023-03-14T06:23:12;8.60;99.90
52471;DHT22;38382;53.160;7.026;2023-03-14T06:25:38;8.60;99.90
52471;DHT22;38382;53.160;7.026;2023-03-14T06:28:04;8.60;99.90
52471;DHT22;38382;53.160;7.026;2023-03-14T06:30:29;8.60;99.90
52471;DHT22;38382;53.160;7.026;2023-03-14T06:32:55;8.60;99.90
52471;DHT22;38382;53.160;7.026;2023-03-14T06:35:22;8.60;99.90
52471;DHT22;38382;53.160;7.026;2023-03-14T06:37:48;8.60;99.90
52471;DHT22;38382;53.160;7.026;2023-03-14T06:40:14;8.60;99.90
52471;DHT22;38382;53.160;7.026;2023-03-14T06:42:43;8.60;99.90
52471;DHT22;38382;53.160;7.026;2023-03-14T06:45:10;8.60;99.90
52471;DHT22;38382;53.160;7.026;2023-03-14T06:47:36;8.60;99.90
52471;DHT22;38382;53.160;7.026;2023-03-14T06:50:04;8.70;99.90
52471;DHT22;38382;53.160;7.026;2023-03-14T06:52:30;8.70;99.90
52471;DHT22;38382;53.160;7.026;2023-03-14T06:54:56;8.70;99.90
52471;DHT22;38382;53.160;7.026;2023-03-14T06:57:21;8.80;99.90
52471;DHT22;38382;53.160;7.026;2023-03-14T06:59:47;8.80;99.90
52471;DHT22;38382;53.160;7.026;2023-03-14T07:02:13;8.70;99.90
52471;DHT22;38382;53.160;7.026;2023-03-14T07:04:39;8.70;99.90
52471;DHT22;38382;53.160;7.026;2023-03-14T07:07:05;8.70;99.90
52471;DHT22;38382;53.160;7.026;2023-03-14T07:09:31;8.70;99.90
52471;DHT22;38382;53.160;7.026;2023-03-14T07:11:57;8.50;99.90
52471;DHT22;38382;53.160;7.026;2023-03-14T07:14:23;8.20;99.90
52471;DHT22;38382;53.160;7.026;2023-03-14T07:16:49;8.00;99.90
52471;DHT22;38382;53.160;7.026;2023-03-14T07:19:14;7.80;99.90
52471;DHT22;38382;53.160;7.026;2023-03-14T07:21:40;7.60;99.90
52471;DHT22;38382;53.160;7.026;2023-03-14T07:24:06;7.50;99.90
52471;DHT22;38382;53.160;7.026;2023-03-14T07:26:32;7.40;99.90
52471;DHT22;38382;53.160;7.026;2023-03-14T07:28:57;7.30;99.90
52471;DHT22;38382;53.160;7.026;2023-03-14T07:31:23;7.30;99.90
52471;DHT22;38382;53.160;7.026;2023-03-14T07:33:49;7.20;99.90
52471;DHT22;38382;53.160;7.026;2023-03-14T07:36:16;6.90;99.90
52471;DHT22;38382;53.160;7.026;2023-03-14T07:38:41;6.90;99.90
52471;DHT22;38382;53.160;7.026;2023-03-14T07:41:08;6.60;99.90
52471;DHT22;38382;53.160;7.026;2023-03-14T07:43:34;6.20;99.90
52471;DHT22;38382;53.160;7.026;2023-03-14T07:45:59;5.90;99.90
52471;DHT22;38382;53.160;7.026;2023-03-14T07:48:26;5.60;99.90
52471;DHT22;38382;53.160;7.026;2023-03-14T07:50:53;5.40;99.90
52471;DHT22;38382;53.160;7.026;2023-03-14T07:53:20;5.30;99.90
52471;DHT22;38382;53.160;7.026;2023-03-14T07:55:47;5.60;99.90
52471;DHT22;38382;53.160;7.026;2023-03-14T07:58:13;5.40;99.90
52471;DHT22;38382;53.160;7.026;2023-03-14T08:00:39;4.90;99.90
52471;DHT22;38382;53.160;7.026;2023-03-14T08:03:05;4.80;99.90
52471;DHT22;38382;53.160;7.026;2023-03-14T08:05:34;4.70;99.90
52471;DHT22;38382;53.160;7.026;2023-03-14T08:08:00;5.10;99.90
52471;DHT22;38382;53.160;7.026;2023-03-14T08:10:26;5.00;99.90
52471;DHT22;38382;53.160;7.026;2023-03-14T08:12:55;4.50;99.90
52471;DHT22;38382;53.160;7.026;2023-03-14T08:15:22;4.50;99.90
52471;DHT22;38382;53.160;7.026;2023-03-14T08:17:49;4.40;99.90
52471;DHT22;38382;53.160;7.026;2023-03-14T08:20:25;4.50;99.90
52471;DHT22;38382;53.160;7.026;2023-03-14T08:22:51;5.10;99.90
52471;DHT22;38382;53.160;7.026;2023-03-14T08:25:17;5.20;99.90
52471;DHT22;38382;53.160;7.026;2023-03-14T08:27:43;4.40;99.90
52471;DHT22;38382;53.160;7.026;2023-03-14T08:30:12;4.60;99.90
52471;DHT22;38382;53.160;7.026;2023-03-14T08:32:38;4.50;99.90
52471;DHT22;38382;53.160;7.026;2023-03-14T08:35:05;4.60;99.90
52471;DHT22;38382;53.160;7.026;2023-03-14T08:37:32;4.50;99.90
52471;DHT22;38382;53.160;7.026;2023-03-14T08:39:58;4.70;99.90
52471;DHT22;38382;53.160;7.026;2023-03-14T08:42:24;5.30;99.90
52471;DHT22;38382;53.160;7.026;2023-03-14T08:44:53;4.70;99.90
52471;DHT22;38382;53.160;7.026;2023-03-14T08:47:19;4.70;99.90
52471;DHT22;38382;53.160;7.026;2023-03-14T08:49:45;5.50;99.90
52471;DHT22;38382;53.160;7.026;2023-03-14T08:52:11;5.10;99.90
52471;DHT22;38382;53.160;7.026;2023-03-14T08:54:37;5.30;99.90
52471;DHT22;38382;53.160;7.026;2023-03-14T08:57:02;5.20;99.90
52471;DHT22;38382;53.160;7.026;2023-03-14T08:59:28;5.40;99.90
52471;DHT22;38382;53.160;7.026;2023-03-14T09:01:54;4.90;99.90
52471;DHT22;38382;53.160;7.026;2023-03-14T09:04:20;6.00;99.90
52471;DHT22;38382;53.160;7.026;2023-03-14T09:06:46;5.80;99.90
52471;DHT22;38382;53.160;7.026;2023-03-14T09:09:11;5.20;99.90
52471;DHT22;38382;53.160;7.026;2023-03-14T09:11:39;5.30;99.90
52471;DHT22;38382;53.160;7.026;2023-03-14T09:14:05;5.40;99.90
52471;DHT22;38382;53.160;7.026;2023-03-14T09:16:31;5.50;99.90
52471;DHT22;38382;53.160;7.026;2023-03-14T09:18:56;5.50;99.90
52471;DHT22;38382;53.160;7.026;2023-03-14T09:21:26;6.30;99.90
52471;DHT22;38382;53.160;7.026;2023-03-14T09:23:52;6.20;99.90
52471;DHT22;38382;53.160;7.026;2023-03-14T09:26:19;5.40;99.90
52471;DHT22;38382;53.160;7.026;2023-03-14T09:28:45;5.50;99.90
52471;DHT22;38382;53.160;7.026;2023-03-14T09:31:11;5.50;99.90
52471;DHT22;38382;53.160;7.026;2023-03-14T09:33:38;5.60;99.90
52471;DHT22;38382;53.160;7.026;2023-03-14T09:36:05;5.60;99.90
52471;DHT22;38382;53.160;7.026;2023-03-14T09:38:31;5.80;99.90
52471;DHT22;38382;53.160;7.026;2023-03-14T09:40:59;5.90;99.90
52471;DHT22;38382;53.160;7.026;2023-03-14T09:43:29;6.00;99.90
52471;DHT22;38382;53.160;7.026;2023-03-14T09:45:57;6.10;99.90
52471;DHT22;38382;53.160;7.026;2023-03-14T09:48:30;6.20;99.90
52471;DHT22;38382;53.160;7.026;2023-03-14T09:50:58;6.20;99.90
52471;DHT22;38382;53.160;7.026;2023-03-14T09:53:40;6.30;99.90
52471;DHT22;38382;53.160;7.026;2023-03-14T09:56:21;6.30;99.90
52471;DHT22;38382;53.160;7.026;2023-03-14T09:58:52;6.40;99.90
52471;DHT22;38382;53.160;7.026;2023-03-14T10:01:24;6.60;99.90
52471;DHT22;38382;53.160;7.026;2023-03-14T10:03:51;6.60;99.90
52471;DHT22;38382;53.160;7.026;2023-03-14T10:06:19;6.40;99.90
52471;DHT22;38382;53.160;7.026;2023-03-14T10:08:45;6.30;99.90
52471;DHT22;38382;53.160;7.026;2023-03-14T10:11:16;6.20;99.90
52471;DHT22;38382;53.160;7.026;2023-03-14T10:14:09;6.10;99.90
52471;DHT22;38382;53.160;7.026;2023-03-14T10:16:44;5.90;99.90
52471;DHT22;38382;53.160;7.026;2023-03-14T10:19:15;5.80;99.90
52471;DHT22;38382;53.160;7.026;2023-03-14T10:21:44;5.90;99.90
52471;DHT22;38382;53.160;7.026;2023-03-14T10:26:48;6.10;99.90
52471;DHT22;38382;53.160;7.026;2023-03-14T10:29:13;6.20;99.90
52471;DHT22;38382;53.160;7.026;2023-03-14T10:31:49;6.20;99.90
52471;DHT22;38382;53.160;7.026;2023-03-14T10:34:22;6.30;99.90
52471;DHT22;38382;53.160;7.026;2023-03-14T10:36:56;6.40;99.90
52471;DHT22;38382;53.160;7.026;2023-03-14T10:39:38;6.30;99.90
52471;DHT22;38382;53.160;7.026;2023-03-14T10:42:21;6.30;99.90
52471;DHT22;38382;53.160;7.026;2023-03-14T10:44:51;6.30;99.90
52471;DHT22;38382;53.160;7.026;2023-03-14T10:47:22;6.40;99.90
52471;DHT22;38382;53.160;7.026;2023-03-14T10:49:48;6.40;99.90
52471;DHT22;38382;53.160;7.026;2023-03-14T10:52:26;6.50;99.90
52471;DHT22;38382;53.160;7.026;2023-03-14T10:57:20;7.10;99.90
52471;DHT22;38382;53.160;7.026;2023-03-14T10:59:46;7.20;99.90
52471;DHT22;38382;53.160;7.026;2023-03-14T11:02:34;7.30;99.90
52471;DHT22;38382;53.160;7.026;2023-03-14T11:05:38;7.40;99.90
52471;DHT22;38382;53.160;7.026;2023-03-14T11:08:14;7.30;99.90
52471;DHT22;38382;53.160;7.026;2023-03-14T11:10:45;7.30;99.90
52471;DHT22;38382;53.160;7.026;2023-03-14T11:13:51;7.50;99.90
52471;DHT22;38382;53.160;7.026;2023-03-14T11:16:45;7.70;99.90
52471;DHT22;38382;53.160;7.026;2023-03-14T11:25:29;7.60;99.90
52471;DHT22;38382;53.160;7.026;2023-03-14T11:30:39;7.30;99.90
52471;DHT22;38382;53.160;7.026;2023-03-14T11:38:25;7.10;99.90
52471;DHT22;38382;53.160;7.026;2023-03-14T11:40:56;7.50;99.90
52471;DHT22;38382;53.160;7.026;2023-03-14T11:43:37;7.80;99.90
52471;DHT22;38382;53.160;7.026;2023-03-14T11:49:06;8.00;99.90
52471;DHT22;38382;53.160;7.026;2023-03-14T11:51:38;8.10;99.90
52471;DHT22;38382;53.160;7.026;2023-03-14T11:57:19;7.70;99.90
52471;DHT22;38382;53.160;7.026;2023-03-14T11:59:59;7.30;99.90
52471;DHT22;38382;53.160;7.026;2023-03-14T12:05:43;7.00;99.90
52471;DHT22;38382;53.160;7.026;2023-03-14T12:08:40;7.10;99.90
52471;DHT22;38382;53.160;7.026;2023-03-14T12:14:28;7.60;99.90
52471;DHT22;38382;53.160;7.026;2023-03-14T12:17:07;7.90;99.90
52471;DHT22;38382;53.160;7.026;2023-03-14T12:19:43;8.10;99.90
52471;DHT22;38382;53.160;7.026;2023-03-14T12:24:51;8.20;99.90
52471;DHT22;38382;53.160;7.026;2023-03-14T12:27:49;8.20;99.90
52471;DHT22;38382;53.160;7.026;2023-03-14T12:30:33;8.20;98.20
52471;DHT22;38382;53.160;7.026;2023-03-14T12:35:45;7.90;99.20
52471;DHT22;38382;53.160;7.026;2023-03-14T12:41:52;7.60;99.90
52471;DHT22;38382;53.160;7.026;2023-03-14T12:49:51;7.20;99.90
52471;DHT22;38382;53.160;7.026;2023-03-14T12:55:21;7.00;99.90
52471;DHT22;38382;53.160;7.026;2023-03-14T12:58:15;7.00;99.90
52471;DHT22;38382;53.160;7.026;2023-03-14T13:00:42;7.20;99.90
52471;DHT22;38382;53.160;7.026;2023-03-14T13:03:23;7.70;99.90
52471;DHT22;38382;53.160;7.026;2023-03-14T13:05:57;8.20;99.90
52471;DHT22;38382;53.160;7.026;2023-03-14T13:08:39;8.20;99.90
52471;DHT22;38382;53.160;7.026;2023-03-14T13:11:16;8.10;99.90
52471;DHT22;38382;53.160;7.026;2023-03-14T13:13:57;7.80;99.90
52471;DHT22;38382;53.160;7.026;2023-03-14T13:16:23;7.50;99.90
52471;DHT22;38382;53.160;7.026;2023-03-14T13:18:58;7.30;99.90
52471;DHT22;38382;53.160;7.026;2023-03-14T13:21:27;7.30;99.90
52471;DHT22;38382;53.160;7.026;2023-03-14T13:24:23;7.30;99.90
52471;DHT22;38382;53.160;7.026;2023-03-14T13:26:49;7.60;99.90
52471;DHT22;38382;53.160;7.026;2023-03-14T13:29:33;8.20;99.90
52471;DHT22;38382;53.160;7.026;2023-03-14T13:32:20;8.80;95.70
52471;DHT22;38382;53.160;7.026;2023-03-14T13:34:47;9.00;97.50
52471;DHT22;38382;53.160;7.026;2023-03-14T13:37:22;9.10;96.20
52471;DHT22;38382;53.160;7.026;2023-03-14T13:39:57;9.00;96.40
52471;DHT22;38382;53.160;7.026;2023-03-14T13:42:28;8.90;96.80
52471;DHT22;38382;53.160;7.026;2023-03-14T13:44:55;9.00;97.60
52471;DHT22;38382;53.160;7.026;2023-03-14T13:47:23;9.00;96.70
52471;DHT22;38382;53.160;7.026;2023-03-14T13:49:50;9.00;96.60
52471;DHT22;38382;53.160;7.026;2023-03-14T13:52:36;8.70;96.30
52471;DHT22;38382;53.160;7.026;2023-03-14T13:55:05;8.50;96.10
52471;DHT22;38382;53.160;7.026;2023-03-14T13:57:49;8.50;97.10
52471;DHT22;38382;53.160;7.026;2023-03-14T14:00:21;8.50;95.90
52471;DHT22;38382;53.160;7.026;2023-03-14T14:02:48;8.40;94.80
52471;DHT22;38382;53.160;7.026;2023-03-14T14:05:14;8.60;94.20
52471;DHT22;38382;53.160;7.026;2023-03-14T14:07:43;8.80;90.70
52471;DHT22;38382;53.160;7.026;2023-03-14T14:10:12;9.60;92.10
52471;DHT22;38382;53.160;7.026;2023-03-14T14:13:12;10.50;91.40
52471;DHT22;38382;53.160;7.026;2023-03-14T14:15:45;11.40;83.60
52471;DHT22;38382;53.160;7.026;2023-03-14T14:18:15;11.80;82.30
52471;DHT22;38382;53.160;7.026;2023-03-14T14:20:44;11.30;80.10
52471;DHT22;38382;53.160;7.026;2023-03-14T14:23:16;10.70;81.40
52471;DHT22;38382;53.160;7.026;2023-03-14T14:25:43;10.30;81.00
52471;DHT22;38382;53.160;7.026;2023-03-14T14:28:28;9.90;82.00
52471;DHT22;38382;53.160;7.026;2023-03-14T14:33:58;8.80;86.80
52471;DHT22;38382;53.160;7.026;2023-03-14T14:36:41;8.40;90.40
52471;DHT22;38382;53.160;7.026;2023-03-14T14:41:42;8.20;92.40
52471;DHT22;38382;53.160;7.026;2023-03-14T14:44:12;7.90;93.00
52471;DHT22;38382;53.160;7.026;2023-03-14T14:46:39;7.90;94.20
52471;DHT22;38382;53.160;7.026;2023-03-14T14:49:18;8.80;95.10
52471;DHT22;38382;53.160;7.026;2023-03-14T14:51:48;10.60;91.20
52471;DHT22;38382;53.160;7.026;2023-03-14T14:54:17;12.20;84.10
52471;DHT22;38382;53.160;7.026;2023-03-14T14:56:52;13.10;77.60
52471;DHT22;38382;53.160;7.026;2023-03-14T14:59:28;12.90;76.60
52471;DHT22;38382;53.160;7.026;2023-03-14T15:02:01;13.40;74.50
52471;DHT22;38382;53.160;7.026;2023-03-14T15:04:30;12.90;73.30
52471;DHT22;38382;53.160;7.026;2023-03-14T15:06:56;11.60;75.00
52471;DHT22;38382;53.160;7.026;2023-03-14T15:09:22;10.90;78.60
52471;DHT22;38382;53.160;7.026;2023-03-14T15:11:49;10.60;80.10
52471;DHT22;38382;53.160;7.026;2023-03-14T15:14:15;9.90;80.00
52471;DHT22;38382;53.160;7.026;2023-03-14T15:16:40;9.50;84.40
52471;DHT22;38382;53.160;7.026;2023-03-14T15:19:13;9.00;88.60
52471;DHT22;38382;53.160;7.026;2023-03-14T15:21:40;8.80;91.20
52471;DHT22;38382;53.160;7.026;2023-03-14T15:24:07;8.60;92.30
52471;DHT22;38382;53.160;7.026;2023-03-14T15:26:33;8.40;93.30
52471;DHT22;38382;53.160;7.026;2023-03-14T15:28:59;8.30;94.40
52471;DHT22;38382;53.160;7.026;2023-03-14T15:31:25;8.00;94.90
52471;DHT22;38382;53.160;7.026;2023-03-14T15:33:51;7.80;95.80
52471;DHT22;38382;53.160;7.026;2023-03-14T15:36:27;7.70;96.20
52471;DHT22;38382;53.160;7.026;2023-03-14T15:38:54;7.60;95.30
52471;DHT22;38382;53.160;7.026;2023-03-14T15:41:21;7.50;95.50
52471;DHT22;38382;53.160;7.026;2023-03-14T15:43:47;7.50;95.60
52471;DHT22;38382;53.160;7.026;2023-03-14T15:46:14;7.30;95.70
52471;DHT22;38382;53.160;7.026;2023-03-14T15:48:40;7.30;93.70
52471;DHT22;38382;53.160;7.026;2023-03-14T15:51:06;7.20;95.20
52471;DHT22;38382;53.160;7.026;2023-03-14T15:53:32;7.40;94.70
52471;DHT22;38382;53.160;7.026;2023-03-14T15:55:58;7.30;94.00
52471;DHT22;38382;53.160;7.026;2023-03-14T15:58:24;7.30;93.60
52471;DHT22;38382;53.160;7.026;2023-03-14T16:00:50;7.20;93.60
52471;DHT22;38382;53.160;7.026;2023-03-14T16:03:16;7.10;93.90
52471;DHT22;38382;53.160;7.026;2023-03-14T16:05:42;7.00;92.90
52471;DHT22;38382;53.160;7.026;2023-03-14T16:08:08;6.90;93.80
52471;DHT22;38382;53.160;7.026;2023-03-14T16:10:34;6.80;92.90
52471;DHT22;38382;53.160;7.026;2023-03-14T16:12:59;6.70;93.10
52471;DHT22;38382;53.160;7.026;2023-03-14T16:15:26;6.60;92.60
52471;DHT22;38382;53.160;7.026;2023-03-14T16:17:53;6.60;93.90
52471;DHT22;38382;53.160;7.026;2023-03-14T16:20:19;6.50;94.50
52471;DHT22;38382;53.160;7.026;2023-03-14T16:22:45;6.40;94.30
52471;DHT22;38382;53.160;7.026;2023-03-14T16:25:11;6.40;95.20
52471;DHT22;38382;53.160;7.026;2023-03-14T16:27:37;6.30;95.70
52471;DHT22;38382;53.160;7.026;2023-03-14T16:30:04;6.30;95.60
52471;DHT22;38382;53.160;7.026;2023-03-14T16:32:30;6.20;94.80
52471;DHT22;38382;53.160;7.026;2023-03-14T16:34:56;6.20;94.90
52471;DHT22;38382;53.160;7.026;2023-03-14T16:37:25;6.10;93.60
52471;DHT22;38382;53.160;7.026;2023-03-14T16:39:52;6.10;94.50
52471;DHT22;38382;53.160;7.026;2023-03-14T16:42:20;5.90;96.00
52471;DHT22;38382;53.160;7.026;2023-03-14T16:44:45;5.70;97.20
52471;DHT22;38382;53.160;7.026;2023-03-14T16:47:11;5.60;98.30
52471;DHT22;38382;53.160;7.026;2023-03-14T16:49:37;5.30;99.00
52471;DHT22;38382;53.160;7.026;2023-03-14T16:52:04;5.10;99.90
52471;DHT22;38382;53.160;7.026;2023-03-14T16:54:31;5.00;99.90
52471;DHT22;38382;53.160;7.026;2023-03-14T16:56:56;5.10;99.90
52471;DHT22;38382;53.160;7.026;2023-03-14T16:59:22;4.80;99.90